<?xml version="1.0" encoding="UTF-8" standalone="no" ?>
<gpx xmlns="http://www.topografix.com/GPX/1/1" xmlns:xsi="http://www.w3.org/2001/XMLSchema-instance" xsi:schemaLocation="http://www.topografix.com/GPX/1/1 http://www.topografix.com/GPX/1/1/gpx.xsd" version="1.1" creator="VisuGPX - https://www.visugpx.com">
  <metadata>
    <name>TOTAL 4x4 </name>
  </metadata>
  <wpt lat="42.36368" lon="2.84007">
    <ele>181</ele>
  </wpt>
  <wpt lat="42.36397" lon="2.83975">
    <ele>185.2</ele>
  </wpt>
  <wpt lat="42.36387" lon="2.83877">
    <ele>193</ele>
  </wpt>
  <wpt lat="42.36443" lon="2.83943">
    <ele>186.6</ele>
  </wpt>
  <wpt lat="42.2714" lon="2.52859">
    <ele>415.7</ele>
  </wpt>
  <wpt lat="42.27123" lon="2.52776">
    <ele>417.3</ele>
  </wpt>
  <wpt lat="42.27143" lon="2.53029">
    <ele>408.8</ele>
  </wpt>
  <trk>
    <name><![CDATA[Fin]]></name>
    <extensions>
      <line xmlns="http://www.topografix.com/GPX/gpx_style/0/2">
        <color>0000FF</color>
        <width>4</width>
      </line>
    </extensions>
    <trkseg>
      <trkpt lat="42.58343" lon="-1.36291">
        <ele>485.56</ele>
        <time>2021-08-05T07:56:48Z</time>
      </trkpt>
      <trkpt lat="42.58398" lon="-1.36284">
        <ele>489.03</ele>
        <time>2021-08-05T07:56:52Z</time>
      </trkpt>
      <trkpt lat="42.58443" lon="-1.36273">
        <ele>489.81</ele>
        <time>2021-08-05T07:56:55Z</time>
      </trkpt>
      <trkpt lat="42.58507" lon="-1.36278">
        <ele>493.13</ele>
        <time>2021-08-05T07:56:59Z</time>
      </trkpt>
      <trkpt lat="42.5858" lon="-1.363">
        <ele>497.45</ele>
        <time>2021-08-05T07:57:03Z</time>
      </trkpt>
      <trkpt lat="42.58639" lon="-1.3632">
        <ele>500.61</ele>
        <time>2021-08-05T07:57:06Z</time>
      </trkpt>
      <trkpt lat="42.58716" lon="-1.3635">
        <ele>504.19</ele>
        <time>2021-08-05T07:57:10Z</time>
      </trkpt>
      <trkpt lat="42.58817" lon="-1.36389">
        <ele>507.44</ele>
        <time>2021-08-05T07:57:16Z</time>
      </trkpt>
      <trkpt lat="42.58922" lon="-1.36427">
        <ele>508.54</ele>
        <time>2021-08-05T07:57:23Z</time>
      </trkpt>
      <trkpt lat="42.59013" lon="-1.3643">
        <ele>510.32</ele>
        <time>2021-08-05T07:57:31Z</time>
      </trkpt>
      <trkpt lat="42.59016" lon="-1.36429">
        <ele>510.93</ele>
        <time>2021-08-05T07:57:37Z</time>
      </trkpt>
      <trkpt lat="42.59026" lon="-1.36432">
        <ele>511.24</ele>
        <time>2021-08-05T07:57:41Z</time>
      </trkpt>
      <trkpt lat="42.59096" lon="-1.36469">
        <ele>512.33</ele>
        <time>2021-08-05T07:57:49Z</time>
      </trkpt>
      <trkpt lat="42.59218" lon="-1.36528">
        <ele>515.68</ele>
        <time>2021-08-05T07:57:57Z</time>
      </trkpt>
      <trkpt lat="42.59252" lon="-1.36546">
        <ele>516.92</ele>
        <time>2021-08-05T07:57:59Z</time>
      </trkpt>
      <trkpt lat="42.59314" lon="-1.36582">
        <ele>520.12</ele>
        <time>2021-08-05T07:58:03Z</time>
      </trkpt>
      <trkpt lat="42.59342" lon="-1.36594">
        <ele>521.14</ele>
        <time>2021-08-05T07:58:05Z</time>
      </trkpt>
      <trkpt lat="42.59421" lon="-1.36679">
        <ele>523.76</ele>
        <time>2021-08-05T07:58:12Z</time>
      </trkpt>
      <trkpt lat="42.59528" lon="-1.36815">
        <ele>526.96</ele>
        <time>2021-08-05T07:58:20Z</time>
      </trkpt>
      <trkpt lat="42.59634" lon="-1.36942">
        <ele>529.97</ele>
        <time>2021-08-05T07:58:27Z</time>
      </trkpt>
      <trkpt lat="42.59772" lon="-1.37109">
        <ele>532.99</ele>
        <time>2021-08-05T07:58:36Z</time>
      </trkpt>
      <trkpt lat="42.5984" lon="-1.37222">
        <ele>535.81</ele>
        <time>2021-08-05T07:58:42Z</time>
      </trkpt>
      <trkpt lat="42.59893" lon="-1.37329">
        <ele>538.94</ele>
        <time>2021-08-05T07:58:47Z</time>
      </trkpt>
      <trkpt lat="42.59924" lon="-1.37431">
        <ele>542.13</ele>
        <time>2021-08-05T07:58:52Z</time>
      </trkpt>
      <trkpt lat="42.59977" lon="-1.37611">
        <ele>545.36</ele>
        <time>2021-08-05T07:59:01Z</time>
      </trkpt>
      <trkpt lat="42.60027" lon="-1.37778">
        <ele>548.71</ele>
        <time>2021-08-05T07:59:08Z</time>
      </trkpt>
      <trkpt lat="42.60057" lon="-1.3788">
        <ele>551.76</ele>
        <time>2021-08-05T07:59:12Z</time>
      </trkpt>
      <trkpt lat="42.60087" lon="-1.37985">
        <ele>555.12</ele>
        <time>2021-08-05T07:59:16Z</time>
      </trkpt>
      <trkpt lat="42.60117" lon="-1.38093">
        <ele>558.5</ele>
        <time>2021-08-05T07:59:20Z</time>
      </trkpt>
      <trkpt lat="42.60144" lon="-1.38187">
        <ele>561.58</ele>
        <time>2021-08-05T07:59:24Z</time>
      </trkpt>
      <trkpt lat="42.6015" lon="-1.38208">
        <ele>562.17</ele>
        <time>2021-08-05T07:59:25Z</time>
      </trkpt>
      <trkpt lat="42.60149" lon="-1.38288">
        <ele>564.48</ele>
        <time>2021-08-05T07:59:29Z</time>
      </trkpt>
      <trkpt lat="42.60143" lon="-1.38324">
        <ele>565.54</ele>
        <time>2021-08-05T07:59:31Z</time>
      </trkpt>
      <trkpt lat="42.60165" lon="-1.38426">
        <ele>567.9</ele>
        <time>2021-08-05T07:59:37Z</time>
      </trkpt>
      <trkpt lat="42.6022" lon="-1.38474">
        <ele>568.36</ele>
        <time>2021-08-05T07:59:42Z</time>
      </trkpt>
      <trkpt lat="42.60237" lon="-1.38523">
        <ele>567.89</ele>
        <time>2021-08-05T07:59:45Z</time>
      </trkpt>
      <trkpt lat="42.60283" lon="-1.38744">
        <ele>565.5</ele>
        <time>2021-08-05T07:59:55Z</time>
      </trkpt>
      <trkpt lat="42.60296" lon="-1.38834">
        <ele>565.04</ele>
        <time>2021-08-05T07:59:59Z</time>
      </trkpt>
      <trkpt lat="42.60276" lon="-1.38982">
        <ele>565.06</ele>
        <time>2021-08-05T08:00:06Z</time>
      </trkpt>
      <trkpt lat="42.60263" lon="-1.39123">
        <ele>566</ele>
        <time>2021-08-05T08:00:13Z</time>
      </trkpt>
      <trkpt lat="42.60301" lon="-1.39186">
        <ele>565.57</ele>
        <time>2021-08-05T08:00:19Z</time>
      </trkpt>
      <trkpt lat="42.60331" lon="-1.39203">
        <ele>565.3</ele>
        <time>2021-08-05T08:00:22Z</time>
      </trkpt>
      <trkpt lat="42.60363" lon="-1.39247">
        <ele>564.81</ele>
        <time>2021-08-05T08:00:26Z</time>
      </trkpt>
      <trkpt lat="42.60438" lon="-1.39419">
        <ele>565.24</ele>
        <time>2021-08-05T08:00:36Z</time>
      </trkpt>
      <trkpt lat="42.60476" lon="-1.3954">
        <ele>566.93</ele>
        <time>2021-08-05T08:00:43Z</time>
      </trkpt>
      <trkpt lat="42.6053" lon="-1.39798">
        <ele>570.08</ele>
        <time>2021-08-05T08:00:55Z</time>
      </trkpt>
      <trkpt lat="42.60582" lon="-1.39999">
        <ele>573.12</ele>
        <time>2021-08-05T08:01:05Z</time>
      </trkpt>
      <trkpt lat="42.60627" lon="-1.40131">
        <ele>576.4</ele>
        <time>2021-08-05T08:01:13Z</time>
      </trkpt>
      <trkpt lat="42.60672" lon="-1.40269">
        <ele>579.85</ele>
        <time>2021-08-05T08:01:21Z</time>
      </trkpt>
      <trkpt lat="42.60703" lon="-1.40363">
        <ele>582.96</ele>
        <time>2021-08-05T08:01:27Z</time>
      </trkpt>
      <trkpt lat="42.6071" lon="-1.40388">
        <ele>584.07</ele>
        <time>2021-08-05T08:01:29Z</time>
      </trkpt>
      <trkpt lat="42.60701" lon="-1.40462">
        <ele>586.56</ele>
        <time>2021-08-05T08:01:35Z</time>
      </trkpt>
      <trkpt lat="42.60695" lon="-1.40472">
        <ele>586.94</ele>
        <time>2021-08-05T08:01:36Z</time>
      </trkpt>
      <trkpt lat="42.60683" lon="-1.40489">
        <ele>587.57</ele>
        <time>2021-08-05T08:01:38Z</time>
      </trkpt>
      <trkpt lat="42.60678" lon="-1.40544">
        <ele>589.49</ele>
        <time>2021-08-05T08:01:44Z</time>
      </trkpt>
      <trkpt lat="42.6071" lon="-1.40669">
        <ele>591.68</ele>
        <time>2021-08-05T08:01:56Z</time>
      </trkpt>
      <trkpt lat="42.60712" lon="-1.40682">
        <ele>591.81</ele>
        <time>2021-08-05T08:01:58Z</time>
      </trkpt>
      <trkpt lat="42.6071" lon="-1.40707">
        <ele>591.77</ele>
        <time>2021-08-05T08:02:08Z</time>
      </trkpt>
      <trkpt lat="42.60704" lon="-1.40735">
        <ele>592.01</ele>
        <time>2021-08-05T08:02:19Z</time>
      </trkpt>
      <trkpt lat="42.60702" lon="-1.40786">
        <ele>593.17</ele>
        <time>2021-08-05T08:02:34Z</time>
      </trkpt>
      <trkpt lat="42.60703" lon="-1.40824">
        <ele>593.52</ele>
        <time>2021-08-05T08:02:43Z</time>
      </trkpt>
      <trkpt lat="42.60712" lon="-1.40828">
        <ele>593.33</ele>
        <time>2021-08-05T08:02:47Z</time>
      </trkpt>
      <trkpt lat="42.60777" lon="-1.40842">
        <ele>595.54</ele>
        <time>2021-08-05T08:02:57Z</time>
      </trkpt>
      <trkpt lat="42.60806" lon="-1.40846">
        <ele>598.8</ele>
        <time>2021-08-05T08:03:05Z</time>
      </trkpt>
      <trkpt lat="42.60813" lon="-1.40844">
        <ele>599.81</ele>
        <time>2021-08-05T08:03:08Z</time>
      </trkpt>
      <trkpt lat="42.60828" lon="-1.40822">
        <ele>601.88</ele>
        <time>2021-08-05T08:03:15Z</time>
      </trkpt>
      <trkpt lat="42.60842" lon="-1.40815">
        <ele>602.23</ele>
        <time>2021-08-05T08:03:18Z</time>
      </trkpt>
      <trkpt lat="42.6086" lon="-1.40795">
        <ele>603.26</ele>
        <time>2021-08-05T08:03:25Z</time>
      </trkpt>
      <trkpt lat="42.60853" lon="-1.40757">
        <ele>603.05</ele>
        <time>2021-08-05T08:03:30Z</time>
      </trkpt>
      <trkpt lat="42.60836" lon="-1.40722">
        <ele>602.14</ele>
        <time>2021-08-05T08:03:35Z</time>
      </trkpt>
      <trkpt lat="42.60845" lon="-1.40711">
        <ele>600.9</ele>
        <time>2021-08-05T08:03:39Z</time>
      </trkpt>
      <trkpt lat="42.60869" lon="-1.40686">
        <ele>600.82</ele>
        <time>2021-08-05T08:03:48Z</time>
      </trkpt>
      <trkpt lat="42.60874" lon="-1.40637">
        <ele>603.04</ele>
        <time>2021-08-05T08:03:58Z</time>
      </trkpt>
      <trkpt lat="42.60914" lon="-1.40599">
        <ele>604.49</ele>
        <time>2021-08-05T08:04:05Z</time>
      </trkpt>
      <trkpt lat="42.60988" lon="-1.40536">
        <ele>607.93</ele>
        <time>2021-08-05T08:04:13Z</time>
      </trkpt>
      <trkpt lat="42.61043" lon="-1.40491">
        <ele>611.11</ele>
        <time>2021-08-05T08:04:18Z</time>
      </trkpt>
      <trkpt lat="42.61093" lon="-1.40438">
        <ele>614.83</ele>
        <time>2021-08-05T08:04:23Z</time>
      </trkpt>
      <trkpt lat="42.61128" lon="-1.40404">
        <ele>617.78</ele>
        <time>2021-08-05T08:04:27Z</time>
      </trkpt>
      <trkpt lat="42.6117" lon="-1.40385">
        <ele>621.2</ele>
        <time>2021-08-05T08:04:31Z</time>
      </trkpt>
      <trkpt lat="42.61227" lon="-1.40375">
        <ele>627.3</ele>
        <time>2021-08-05T08:04:36Z</time>
      </trkpt>
      <trkpt lat="42.61259" lon="-1.4037">
        <ele>630.32</ele>
        <time>2021-08-05T08:04:39Z</time>
      </trkpt>
      <trkpt lat="42.61307" lon="-1.40364">
        <ele>634.02</ele>
        <time>2021-08-05T08:04:43Z</time>
      </trkpt>
      <trkpt lat="42.61332" lon="-1.40359">
        <ele>635.89</ele>
        <time>2021-08-05T08:04:45Z</time>
      </trkpt>
      <trkpt lat="42.61378" lon="-1.40369">
        <ele>639.22</ele>
        <time>2021-08-05T08:04:49Z</time>
      </trkpt>
      <trkpt lat="42.61421" lon="-1.40399">
        <ele>642.96</ele>
        <time>2021-08-05T08:04:53Z</time>
      </trkpt>
      <trkpt lat="42.61471" lon="-1.40418">
        <ele>647.47</ele>
        <time>2021-08-05T08:04:57Z</time>
      </trkpt>
      <trkpt lat="42.61484" lon="-1.40421">
        <ele>648.73</ele>
        <time>2021-08-05T08:04:58Z</time>
      </trkpt>
      <trkpt lat="42.61535" lon="-1.40417">
        <ele>653.91</ele>
        <time>2021-08-05T08:05:02Z</time>
      </trkpt>
      <trkpt lat="42.61571" lon="-1.40402">
        <ele>658.17</ele>
        <time>2021-08-05T08:05:05Z</time>
      </trkpt>
      <trkpt lat="42.61603" lon="-1.40386">
        <ele>662.67</ele>
        <time>2021-08-05T08:05:08Z</time>
      </trkpt>
      <trkpt lat="42.61622" lon="-1.40376">
        <ele>665.8</ele>
        <time>2021-08-05T08:05:10Z</time>
      </trkpt>
      <trkpt lat="42.6164" lon="-1.40366">
        <ele>668.81</ele>
        <time>2021-08-05T08:05:12Z</time>
      </trkpt>
      <trkpt lat="42.61665" lon="-1.40351">
        <ele>673.12</ele>
        <time>2021-08-05T08:05:15Z</time>
      </trkpt>
      <trkpt lat="42.61691" lon="-1.40336">
        <ele>677.05</ele>
        <time>2021-08-05T08:05:18Z</time>
      </trkpt>
      <trkpt lat="42.61722" lon="-1.40321">
        <ele>680.59</ele>
        <time>2021-08-05T08:05:21Z</time>
      </trkpt>
      <trkpt lat="42.61744" lon="-1.40308">
        <ele>682.68</ele>
        <time>2021-08-05T08:05:23Z</time>
      </trkpt>
      <trkpt lat="42.61788" lon="-1.40302">
        <ele>687.7</ele>
        <time>2021-08-05T08:05:27Z</time>
      </trkpt>
      <trkpt lat="42.61814" lon="-1.40324">
        <ele>691.55</ele>
        <time>2021-08-05T08:05:30Z</time>
      </trkpt>
      <trkpt lat="42.61845" lon="-1.40355">
        <ele>697.1</ele>
        <time>2021-08-05T08:05:34Z</time>
      </trkpt>
      <trkpt lat="42.61846" lon="-1.40376">
        <ele>702.32</ele>
        <time>2021-08-05T08:05:38Z</time>
      </trkpt>
      <trkpt lat="42.61837" lon="-1.40379">
        <ele>703.5</ele>
        <time>2021-08-05T08:05:39Z</time>
      </trkpt>
      <trkpt lat="42.61817" lon="-1.40383">
        <ele>705.63</ele>
        <time>2021-08-05T08:05:41Z</time>
      </trkpt>
      <trkpt lat="42.6176" lon="-1.40427">
        <ele>709.7</ele>
        <time>2021-08-05T08:05:46Z</time>
      </trkpt>
      <trkpt lat="42.61745" lon="-1.40476">
        <ele>711.56</ele>
        <time>2021-08-05T08:05:49Z</time>
      </trkpt>
      <trkpt lat="42.61722" lon="-1.40554">
        <ele>715.6</ele>
        <time>2021-08-05T08:05:54Z</time>
      </trkpt>
      <trkpt lat="42.617" lon="-1.40615">
        <ele>721.06</ele>
        <time>2021-08-05T08:05:59Z</time>
      </trkpt>
      <trkpt lat="42.61706" lon="-1.40647">
        <ele>724.22</ele>
        <time>2021-08-05T08:06:02Z</time>
      </trkpt>
      <trkpt lat="42.61713" lon="-1.4066">
        <ele>726.27</ele>
        <time>2021-08-05T08:06:04Z</time>
      </trkpt>
      <trkpt lat="42.61729" lon="-1.40684">
        <ele>730.8</ele>
        <time>2021-08-05T08:06:09Z</time>
      </trkpt>
      <trkpt lat="42.61744" lon="-1.40711">
        <ele>734.14</ele>
        <time>2021-08-05T08:06:13Z</time>
      </trkpt>
      <trkpt lat="42.61755" lon="-1.40731">
        <ele>737.57</ele>
        <time>2021-08-05T08:06:16Z</time>
      </trkpt>
      <trkpt lat="42.61771" lon="-1.4076">
        <ele>740.7</ele>
        <time>2021-08-05T08:06:20Z</time>
      </trkpt>
      <trkpt lat="42.61785" lon="-1.40783">
        <ele>743.22</ele>
        <time>2021-08-05T08:06:23Z</time>
      </trkpt>
      <trkpt lat="42.61805" lon="-1.4081">
        <ele>747.43</ele>
        <time>2021-08-05T08:06:28Z</time>
      </trkpt>
      <trkpt lat="42.61805" lon="-1.40798">
        <ele>748.95</ele>
        <time>2021-08-05T08:06:30Z</time>
      </trkpt>
      <trkpt lat="42.61798" lon="-1.40738">
        <ele>752.64</ele>
        <time>2021-08-05T08:06:35Z</time>
      </trkpt>
      <trkpt lat="42.61802" lon="-1.40696">
        <ele>754.94</ele>
        <time>2021-08-05T08:06:38Z</time>
      </trkpt>
      <trkpt lat="42.61808" lon="-1.40629">
        <ele>759.21</ele>
        <time>2021-08-05T08:06:43Z</time>
      </trkpt>
      <trkpt lat="42.61839" lon="-1.406">
        <ele>763.16</ele>
        <time>2021-08-05T08:06:47Z</time>
      </trkpt>
      <trkpt lat="42.61873" lon="-1.40596">
        <ele>766.34</ele>
        <time>2021-08-05T08:06:50Z</time>
      </trkpt>
      <trkpt lat="42.61884" lon="-1.40597">
        <ele>767.47</ele>
        <time>2021-08-05T08:06:51Z</time>
      </trkpt>
      <trkpt lat="42.61925" lon="-1.40602">
        <ele>772.03</ele>
        <time>2021-08-05T08:06:55Z</time>
      </trkpt>
      <trkpt lat="42.61956" lon="-1.40604">
        <ele>775.2</ele>
        <time>2021-08-05T08:06:58Z</time>
      </trkpt>
      <trkpt lat="42.61989" lon="-1.40611">
        <ele>778.61</ele>
        <time>2021-08-05T08:07:01Z</time>
      </trkpt>
      <trkpt lat="42.62001" lon="-1.40613">
        <ele>779.65</ele>
        <time>2021-08-05T08:07:02Z</time>
      </trkpt>
      <trkpt lat="42.62038" lon="-1.4061">
        <ele>783.42</ele>
        <time>2021-08-05T08:07:06Z</time>
      </trkpt>
      <trkpt lat="42.62063" lon="-1.40608">
        <ele>787.8</ele>
        <time>2021-08-05T08:07:11Z</time>
      </trkpt>
      <trkpt lat="42.62082" lon="-1.40608">
        <ele>790.19</ele>
        <time>2021-08-05T08:07:14Z</time>
      </trkpt>
      <trkpt lat="42.6211" lon="-1.40612">
        <ele>792.58</ele>
        <time>2021-08-05T08:07:17Z</time>
      </trkpt>
      <trkpt lat="42.6216" lon="-1.40611">
        <ele>797.13</ele>
        <time>2021-08-05T08:07:22Z</time>
      </trkpt>
      <trkpt lat="42.62205" lon="-1.40612">
        <ele>801.02</ele>
        <time>2021-08-05T08:07:26Z</time>
      </trkpt>
      <trkpt lat="42.62254" lon="-1.40617">
        <ele>805.11</ele>
        <time>2021-08-05T08:07:30Z</time>
      </trkpt>
      <trkpt lat="42.62288" lon="-1.40622">
        <ele>808.99</ele>
        <time>2021-08-05T08:07:33Z</time>
      </trkpt>
      <trkpt lat="42.62297" lon="-1.40623">
        <ele>810.31</ele>
        <time>2021-08-05T08:07:34Z</time>
      </trkpt>
      <trkpt lat="42.62334" lon="-1.40616">
        <ele>815.19</ele>
        <time>2021-08-05T08:07:38Z</time>
      </trkpt>
      <trkpt lat="42.62344" lon="-1.40614">
        <ele>816.27</ele>
        <time>2021-08-05T08:07:39Z</time>
      </trkpt>
      <trkpt lat="42.62369" lon="-1.40574">
        <ele>820.53</ele>
        <time>2021-08-05T08:07:43Z</time>
      </trkpt>
      <trkpt lat="42.62368" lon="-1.40541">
        <ele>822.64</ele>
        <time>2021-08-05T08:07:45Z</time>
      </trkpt>
      <trkpt lat="42.62357" lon="-1.40459">
        <ele>827.23</ele>
        <time>2021-08-05T08:07:50Z</time>
      </trkpt>
      <trkpt lat="42.62347" lon="-1.40381">
        <ele>830.56</ele>
        <time>2021-08-05T08:07:54Z</time>
      </trkpt>
      <trkpt lat="42.6234" lon="-1.40342">
        <ele>831.71</ele>
        <time>2021-08-05T08:07:56Z</time>
      </trkpt>
      <trkpt lat="42.62347" lon="-1.4031">
        <ele>833.68</ele>
        <time>2021-08-05T08:08:00Z</time>
      </trkpt>
      <trkpt lat="42.62347" lon="-1.40315">
        <ele>835.8</ele>
        <time>2021-08-05T08:08:10Z</time>
      </trkpt>
      <trkpt lat="42.62345" lon="-1.40318">
        <ele>835.85</ele>
        <time>2021-08-05T08:08:26Z</time>
      </trkpt>
      <trkpt lat="42.62345" lon="-1.40318">
        <ele>835.79</ele>
        <time>2021-08-05T08:08:29Z</time>
      </trkpt>
      <trkpt lat="42.62373" lon="-1.40332">
        <ele>836.09</ele>
        <time>2021-08-05T08:08:35Z</time>
      </trkpt>
      <trkpt lat="42.62385" lon="-1.40354">
        <ele>836.64</ele>
        <time>2021-08-05T08:08:37Z</time>
      </trkpt>
      <trkpt lat="42.62422" lon="-1.40439">
        <ele>840.19</ele>
        <time>2021-08-05T08:08:43Z</time>
      </trkpt>
      <trkpt lat="42.62437" lon="-1.40472">
        <ele>842.01</ele>
        <time>2021-08-05T08:08:45Z</time>
      </trkpt>
      <trkpt lat="42.62492" lon="-1.40557">
        <ele>846.67</ele>
        <time>2021-08-05T08:08:50Z</time>
      </trkpt>
      <trkpt lat="42.6253" lon="-1.40632">
        <ele>850.53</ele>
        <time>2021-08-05T08:08:54Z</time>
      </trkpt>
      <trkpt lat="42.62555" lon="-1.40687">
        <ele>854.12</ele>
        <time>2021-08-05T08:08:57Z</time>
      </trkpt>
      <trkpt lat="42.62582" lon="-1.40735">
        <ele>858.48</ele>
        <time>2021-08-05T08:09:00Z</time>
      </trkpt>
      <trkpt lat="42.62596" lon="-1.4076">
        <ele>861.68</ele>
        <time>2021-08-05T08:09:02Z</time>
      </trkpt>
      <trkpt lat="42.62624" lon="-1.40774">
        <ele>866.32</ele>
        <time>2021-08-05T08:09:05Z</time>
      </trkpt>
      <trkpt lat="42.62656" lon="-1.40759">
        <ele>870.18</ele>
        <time>2021-08-05T08:09:08Z</time>
      </trkpt>
      <trkpt lat="42.62677" lon="-1.4076">
        <ele>872.18</ele>
        <time>2021-08-05T08:09:10Z</time>
      </trkpt>
      <trkpt lat="42.62765" lon="-1.40788">
        <ele>876.19</ele>
        <time>2021-08-05T08:09:16Z</time>
      </trkpt>
      <trkpt lat="42.62814" lon="-1.40815">
        <ele>877.37</ele>
        <time>2021-08-05T08:09:19Z</time>
      </trkpt>
      <trkpt lat="42.62888" lon="-1.40858">
        <ele>878</ele>
        <time>2021-08-05T08:09:25Z</time>
      </trkpt>
      <trkpt lat="42.62937" lon="-1.40896">
        <ele>878.1</ele>
        <time>2021-08-05T08:09:29Z</time>
      </trkpt>
      <trkpt lat="42.62958" lon="-1.4093">
        <ele>878.63</ele>
        <time>2021-08-05T08:09:31Z</time>
      </trkpt>
      <trkpt lat="42.63006" lon="-1.41023">
        <ele>881.55</ele>
        <time>2021-08-05T08:09:36Z</time>
      </trkpt>
      <trkpt lat="42.6308" lon="-1.41098">
        <ele>885.67</ele>
        <time>2021-08-05T08:09:42Z</time>
      </trkpt>
      <trkpt lat="42.63089" lon="-1.41108">
        <ele>886.05</ele>
        <time>2021-08-05T08:09:43Z</time>
      </trkpt>
      <trkpt lat="42.6315" lon="-1.41128">
        <ele>885.75</ele>
        <time>2021-08-05T08:09:49Z</time>
      </trkpt>
      <trkpt lat="42.63156" lon="-1.4113">
        <ele>885.29</ele>
        <time>2021-08-05T08:09:50Z</time>
      </trkpt>
      <trkpt lat="42.63186" lon="-1.41155">
        <ele>881.5</ele>
        <time>2021-08-05T08:09:57Z</time>
      </trkpt>
      <trkpt lat="42.6321" lon="-1.41173">
        <ele>879.47</ele>
        <time>2021-08-05T08:10:07Z</time>
      </trkpt>
      <trkpt lat="42.63245" lon="-1.41214">
        <ele>879.22</ele>
        <time>2021-08-05T08:10:13Z</time>
      </trkpt>
      <trkpt lat="42.6331" lon="-1.41218">
        <ele>878.59</ele>
        <time>2021-08-05T08:10:19Z</time>
      </trkpt>
      <trkpt lat="42.63431" lon="-1.41117">
        <ele>880.08</ele>
        <time>2021-08-05T08:10:27Z</time>
      </trkpt>
      <trkpt lat="42.63476" lon="-1.41081">
        <ele>882.03</ele>
        <time>2021-08-05T08:10:30Z</time>
      </trkpt>
      <trkpt lat="42.63536" lon="-1.41062">
        <ele>885.85</ele>
        <time>2021-08-05T08:10:34Z</time>
      </trkpt>
      <trkpt lat="42.63581" lon="-1.41064">
        <ele>888.2</ele>
        <time>2021-08-05T08:10:37Z</time>
      </trkpt>
      <trkpt lat="42.63603" lon="-1.41054">
        <ele>888.87</ele>
        <time>2021-08-05T08:10:39Z</time>
      </trkpt>
      <trkpt lat="42.63618" lon="-1.41029">
        <ele>889.32</ele>
        <time>2021-08-05T08:10:41Z</time>
      </trkpt>
      <trkpt lat="42.63654" lon="-1.40964">
        <ele>892.18</ele>
        <time>2021-08-05T08:10:46Z</time>
      </trkpt>
      <trkpt lat="42.63686" lon="-1.40972">
        <ele>896.26</ele>
        <time>2021-08-05T08:10:51Z</time>
      </trkpt>
      <trkpt lat="42.63704" lon="-1.41007">
        <ele>897.75</ele>
        <time>2021-08-05T08:10:54Z</time>
      </trkpt>
      <trkpt lat="42.63742" lon="-1.4099">
        <ele>899.3</ele>
        <time>2021-08-05T08:10:59Z</time>
      </trkpt>
      <trkpt lat="42.63768" lon="-1.40987">
        <ele>899.69</ele>
        <time>2021-08-05T08:11:01Z</time>
      </trkpt>
      <trkpt lat="42.63805" lon="-1.40988">
        <ele>897.71</ele>
        <time>2021-08-05T08:11:07Z</time>
      </trkpt>
      <trkpt lat="42.63806" lon="-1.40988">
        <ele>894.44</ele>
        <time>2021-08-05T08:11:13Z</time>
      </trkpt>
      <trkpt lat="42.63806" lon="-1.40988">
        <ele>893.46</ele>
        <time>2021-08-05T08:11:15Z</time>
      </trkpt>
      <trkpt lat="42.63807" lon="-1.40989">
        <ele>892.53</ele>
        <time>2021-08-05T08:11:32Z</time>
      </trkpt>
      <trkpt lat="42.63823" lon="-1.40991">
        <ele>892.59</ele>
        <time>2021-08-05T08:11:36Z</time>
      </trkpt>
      <trkpt lat="42.63872" lon="-1.40991">
        <ele>892.53</ele>
        <time>2021-08-05T08:11:40Z</time>
      </trkpt>
      <trkpt lat="42.63914" lon="-1.41009">
        <ele>892.02</ele>
        <time>2021-08-05T08:11:43Z</time>
      </trkpt>
      <trkpt lat="42.63998" lon="-1.41003">
        <ele>891.26</ele>
        <time>2021-08-05T08:11:49Z</time>
      </trkpt>
      <trkpt lat="42.64022" lon="-1.40974">
        <ele>891.82</ele>
        <time>2021-08-05T08:11:51Z</time>
      </trkpt>
      <trkpt lat="42.64058" lon="-1.40914">
        <ele>895.18</ele>
        <time>2021-08-05T08:11:55Z</time>
      </trkpt>
      <trkpt lat="42.64083" lon="-1.40889">
        <ele>900.12</ele>
        <time>2021-08-05T08:11:59Z</time>
      </trkpt>
      <trkpt lat="42.6409" lon="-1.40888">
        <ele>901.35</ele>
        <time>2021-08-05T08:12:00Z</time>
      </trkpt>
      <trkpt lat="42.64105" lon="-1.40882">
        <ele>905.67</ele>
        <time>2021-08-05T08:12:05Z</time>
      </trkpt>
      <trkpt lat="42.64105" lon="-1.40883">
        <ele>908.8</ele>
        <time>2021-08-05T08:12:14Z</time>
      </trkpt>
      <trkpt lat="42.6411" lon="-1.4088">
        <ele>909.88</ele>
        <time>2021-08-05T08:16:44Z</time>
      </trkpt>
      <trkpt lat="42.64131" lon="-1.40884">
        <ele>910.44</ele>
        <time>2021-08-05T08:16:49Z</time>
      </trkpt>
      <trkpt lat="42.6414" lon="-1.40889">
        <ele>910.61</ele>
        <time>2021-08-05T08:16:51Z</time>
      </trkpt>
      <trkpt lat="42.64216" lon="-1.40911">
        <ele>907.05</ele>
        <time>2021-08-05T08:17:01Z</time>
      </trkpt>
      <trkpt lat="42.64225" lon="-1.40915">
        <ele>906.28</ele>
        <time>2021-08-05T08:17:02Z</time>
      </trkpt>
      <trkpt lat="42.64258" lon="-1.40953">
        <ele>902.15</ele>
        <time>2021-08-05T08:17:07Z</time>
      </trkpt>
      <trkpt lat="42.64279" lon="-1.41005">
        <ele>897.88</ele>
        <time>2021-08-05T08:17:13Z</time>
      </trkpt>
      <trkpt lat="42.6428" lon="-1.41007">
        <ele>894.55</ele>
        <time>2021-08-05T08:17:18Z</time>
      </trkpt>
      <trkpt lat="42.6428" lon="-1.41007">
        <ele>891.48</ele>
        <time>2021-08-05T08:17:33Z</time>
      </trkpt>
      <trkpt lat="42.64294" lon="-1.4104">
        <ele>890.94</ele>
        <time>2021-08-05T08:17:46Z</time>
      </trkpt>
      <trkpt lat="42.64315" lon="-1.41088">
        <ele>888.24</ele>
        <time>2021-08-05T08:17:51Z</time>
      </trkpt>
      <trkpt lat="42.64341" lon="-1.41127">
        <ele>884.26</ele>
        <time>2021-08-05T08:17:55Z</time>
      </trkpt>
      <trkpt lat="42.64353" lon="-1.41146">
        <ele>881.97</ele>
        <time>2021-08-05T08:17:57Z</time>
      </trkpt>
      <trkpt lat="42.64383" lon="-1.4117">
        <ele>876.6</ele>
        <time>2021-08-05T08:18:01Z</time>
      </trkpt>
      <trkpt lat="42.64392" lon="-1.41173">
        <ele>875.08</ele>
        <time>2021-08-05T08:18:02Z</time>
      </trkpt>
      <trkpt lat="42.6443" lon="-1.41188">
        <ele>869.33</ele>
        <time>2021-08-05T08:18:06Z</time>
      </trkpt>
      <trkpt lat="42.64458" lon="-1.412">
        <ele>865.34</ele>
        <time>2021-08-05T08:18:09Z</time>
      </trkpt>
      <trkpt lat="42.64468" lon="-1.41203">
        <ele>864.02</ele>
        <time>2021-08-05T08:18:10Z</time>
      </trkpt>
      <trkpt lat="42.64505" lon="-1.41207">
        <ele>858.55</ele>
        <time>2021-08-05T08:18:14Z</time>
      </trkpt>
      <trkpt lat="42.64536" lon="-1.41181">
        <ele>853.22</ele>
        <time>2021-08-05T08:18:18Z</time>
      </trkpt>
      <trkpt lat="42.64542" lon="-1.41166">
        <ele>851.96</ele>
        <time>2021-08-05T08:18:19Z</time>
      </trkpt>
      <trkpt lat="42.64562" lon="-1.41108">
        <ele>847.39</ele>
        <time>2021-08-05T08:18:23Z</time>
      </trkpt>
      <trkpt lat="42.64576" lon="-1.41065">
        <ele>844.43</ele>
        <time>2021-08-05T08:18:26Z</time>
      </trkpt>
      <trkpt lat="42.64604" lon="-1.41018">
        <ele>839.85</ele>
        <time>2021-08-05T08:18:31Z</time>
      </trkpt>
      <trkpt lat="42.64621" lon="-1.41011">
        <ele>838.35</ele>
        <time>2021-08-05T08:18:33Z</time>
      </trkpt>
      <trkpt lat="42.64661" lon="-1.41006">
        <ele>835.93</ele>
        <time>2021-08-05T08:18:37Z</time>
      </trkpt>
      <trkpt lat="42.64715" lon="-1.41015">
        <ele>833.29</ele>
        <time>2021-08-05T08:18:43Z</time>
      </trkpt>
      <trkpt lat="42.64728" lon="-1.41081">
        <ele>832.37</ele>
        <time>2021-08-05T08:18:49Z</time>
      </trkpt>
      <trkpt lat="42.64724" lon="-1.41111">
        <ele>831.94</ele>
        <time>2021-08-05T08:18:51Z</time>
      </trkpt>
      <trkpt lat="42.6472" lon="-1.41149">
        <ele>830.81</ele>
        <time>2021-08-05T08:18:54Z</time>
      </trkpt>
      <trkpt lat="42.64683" lon="-1.41187">
        <ele>829.14</ele>
        <time>2021-08-05T08:19:00Z</time>
      </trkpt>
      <trkpt lat="42.64675" lon="-1.4119">
        <ele>828.87</ele>
        <time>2021-08-05T08:19:01Z</time>
      </trkpt>
      <trkpt lat="42.64667" lon="-1.41195">
        <ele>828.57</ele>
        <time>2021-08-05T08:19:02Z</time>
      </trkpt>
      <trkpt lat="42.6466" lon="-1.41203">
        <ele>828.22</ele>
        <time>2021-08-05T08:19:03Z</time>
      </trkpt>
      <trkpt lat="42.64664" lon="-1.41256">
        <ele>826.08</ele>
        <time>2021-08-05T08:19:07Z</time>
      </trkpt>
      <trkpt lat="42.64723" lon="-1.41317">
        <ele>822.79</ele>
        <time>2021-08-05T08:19:13Z</time>
      </trkpt>
      <trkpt lat="42.64777" lon="-1.41314">
        <ele>819.53</ele>
        <time>2021-08-05T08:19:17Z</time>
      </trkpt>
      <trkpt lat="42.64834" lon="-1.41292">
        <ele>815.37</ele>
        <time>2021-08-05T08:19:21Z</time>
      </trkpt>
      <trkpt lat="42.64874" lon="-1.41272">
        <ele>810.59</ele>
        <time>2021-08-05T08:19:24Z</time>
      </trkpt>
      <trkpt lat="42.64887" lon="-1.41264">
        <ele>810.59</ele>
        <time>2021-08-05T08:19:25Z</time>
      </trkpt>
      <trkpt lat="42.64913" lon="-1.41248">
        <ele>808.12</ele>
        <time>2021-08-05T08:19:27Z</time>
      </trkpt>
      <trkpt lat="42.64936" lon="-1.41229">
        <ele>804.38</ele>
        <time>2021-08-05T08:19:29Z</time>
      </trkpt>
      <trkpt lat="42.64969" lon="-1.41199">
        <ele>800.42</ele>
        <time>2021-08-05T08:19:32Z</time>
      </trkpt>
      <trkpt lat="42.6499" lon="-1.41178">
        <ele>797.83</ele>
        <time>2021-08-05T08:19:34Z</time>
      </trkpt>
      <trkpt lat="42.65024" lon="-1.41125">
        <ele>792.63</ele>
        <time>2021-08-05T08:19:38Z</time>
      </trkpt>
      <trkpt lat="42.65042" lon="-1.4108">
        <ele>788.56</ele>
        <time>2021-08-05T08:19:41Z</time>
      </trkpt>
      <trkpt lat="42.65056" lon="-1.41038">
        <ele>784.89</ele>
        <time>2021-08-05T08:19:44Z</time>
      </trkpt>
      <trkpt lat="42.65067" lon="-1.4101">
        <ele>781.35</ele>
        <time>2021-08-05T08:19:47Z</time>
      </trkpt>
      <trkpt lat="42.65077" lon="-1.40994">
        <ele>779.39</ele>
        <time>2021-08-05T08:19:49Z</time>
      </trkpt>
      <trkpt lat="42.65089" lon="-1.4098">
        <ele>777.63</ele>
        <time>2021-08-05T08:19:51Z</time>
      </trkpt>
      <trkpt lat="42.6512" lon="-1.40907">
        <ele>773.39</ele>
        <time>2021-08-05T08:19:58Z</time>
      </trkpt>
      <trkpt lat="42.65183" lon="-1.40824">
        <ele>770.36</ele>
        <time>2021-08-05T08:20:08Z</time>
      </trkpt>
      <trkpt lat="42.65191" lon="-1.40815">
        <ele>770.39</ele>
        <time>2021-08-05T08:20:09Z</time>
      </trkpt>
      <trkpt lat="42.65245" lon="-1.40796">
        <ele>772.52</ele>
        <time>2021-08-05T08:20:15Z</time>
      </trkpt>
      <trkpt lat="42.65293" lon="-1.40789">
        <ele>776.25</ele>
        <time>2021-08-05T08:20:23Z</time>
      </trkpt>
      <trkpt lat="42.65353" lon="-1.4071">
        <ele>779.73</ele>
        <time>2021-08-05T08:20:33Z</time>
      </trkpt>
      <trkpt lat="42.65406" lon="-1.40657">
        <ele>779.75</ele>
        <time>2021-08-05T08:20:39Z</time>
      </trkpt>
      <trkpt lat="42.65442" lon="-1.4059">
        <ele>776.28</ele>
        <time>2021-08-05T08:20:45Z</time>
      </trkpt>
      <trkpt lat="42.65466" lon="-1.40539">
        <ele>772.85</ele>
        <time>2021-08-05T08:20:49Z</time>
      </trkpt>
      <trkpt lat="42.6548" lon="-1.40497">
        <ele>769.71</ele>
        <time>2021-08-05T08:20:52Z</time>
      </trkpt>
      <trkpt lat="42.65496" lon="-1.40459">
        <ele>765.94</ele>
        <time>2021-08-05T08:20:55Z</time>
      </trkpt>
      <trkpt lat="42.65523" lon="-1.40417">
        <ele>759.79</ele>
        <time>2021-08-05T08:20:59Z</time>
      </trkpt>
      <trkpt lat="42.6553" lon="-1.40406">
        <ele>759.79</ele>
        <time>2021-08-05T08:21:00Z</time>
      </trkpt>
      <trkpt lat="42.65548" lon="-1.40376">
        <ele>756.35</ele>
        <time>2021-08-05T08:21:03Z</time>
      </trkpt>
      <trkpt lat="42.65567" lon="-1.40349">
        <ele>752.8</ele>
        <time>2021-08-05T08:21:06Z</time>
      </trkpt>
      <trkpt lat="42.65586" lon="-1.40323">
        <ele>747.94</ele>
        <time>2021-08-05T08:21:09Z</time>
      </trkpt>
      <trkpt lat="42.65601" lon="-1.40302">
        <ele>744.27</ele>
        <time>2021-08-05T08:21:12Z</time>
      </trkpt>
      <trkpt lat="42.65613" lon="-1.40288">
        <ele>740.67</ele>
        <time>2021-08-05T08:21:15Z</time>
      </trkpt>
      <trkpt lat="42.6562" lon="-1.40286">
        <ele>738.32</ele>
        <time>2021-08-05T08:21:17Z</time>
      </trkpt>
      <trkpt lat="42.6563" lon="-1.40322">
        <ele>733.92</ele>
        <time>2021-08-05T08:21:22Z</time>
      </trkpt>
      <trkpt lat="42.65637" lon="-1.40387">
        <ele>729.56</ele>
        <time>2021-08-05T08:21:28Z</time>
      </trkpt>
      <trkpt lat="42.65645" lon="-1.40447">
        <ele>725.87</ele>
        <time>2021-08-05T08:21:33Z</time>
      </trkpt>
      <trkpt lat="42.65646" lon="-1.40488">
        <ele>722.41</ele>
        <time>2021-08-05T08:21:37Z</time>
      </trkpt>
      <trkpt lat="42.65646" lon="-1.40516">
        <ele>719.16</ele>
        <time>2021-08-05T08:21:41Z</time>
      </trkpt>
      <trkpt lat="42.65645" lon="-1.40549">
        <ele>715.72</ele>
        <time>2021-08-05T08:21:47Z</time>
      </trkpt>
      <trkpt lat="42.65649" lon="-1.40579">
        <ele>712.63</ele>
        <time>2021-08-05T08:21:56Z</time>
      </trkpt>
      <trkpt lat="42.65652" lon="-1.40582">
        <ele>711.63</ele>
        <time>2021-08-05T08:22:02Z</time>
      </trkpt>
      <trkpt lat="42.65661" lon="-1.4056">
        <ele>711.2</ele>
        <time>2021-08-05T08:22:09Z</time>
      </trkpt>
      <trkpt lat="42.65657" lon="-1.4039">
        <ele>713.52</ele>
        <time>2021-08-05T08:22:19Z</time>
      </trkpt>
      <trkpt lat="42.65654" lon="-1.40268">
        <ele>716.57</ele>
        <time>2021-08-05T08:22:24Z</time>
      </trkpt>
      <trkpt lat="42.65648" lon="-1.40164">
        <ele>719.58</ele>
        <time>2021-08-05T08:22:28Z</time>
      </trkpt>
      <trkpt lat="42.6565" lon="-1.4006">
        <ele>722.91</ele>
        <time>2021-08-05T08:22:32Z</time>
      </trkpt>
      <trkpt lat="42.65662" lon="-1.39957">
        <ele>726.17</ele>
        <time>2021-08-05T08:22:36Z</time>
      </trkpt>
      <trkpt lat="42.65664" lon="-1.39833">
        <ele>729.27</ele>
        <time>2021-08-05T08:22:41Z</time>
      </trkpt>
      <trkpt lat="42.65635" lon="-1.3961">
        <ele>727.27</ele>
        <time>2021-08-05T08:22:50Z</time>
      </trkpt>
      <trkpt lat="42.65619" lon="-1.39498">
        <ele>723.94</ele>
        <time>2021-08-05T08:22:54Z</time>
      </trkpt>
      <trkpt lat="42.65604" lon="-1.39414">
        <ele>720.7</ele>
        <time>2021-08-05T08:22:57Z</time>
      </trkpt>
      <trkpt lat="42.65591" lon="-1.3933">
        <ele>717.25</ele>
        <time>2021-08-05T08:23:00Z</time>
      </trkpt>
      <trkpt lat="42.65578" lon="-1.39247">
        <ele>713.87</ele>
        <time>2021-08-05T08:23:03Z</time>
      </trkpt>
      <trkpt lat="42.65562" lon="-1.39135">
        <ele>710.1</ele>
        <time>2021-08-05T08:23:07Z</time>
      </trkpt>
      <trkpt lat="42.65554" lon="-1.39056">
        <ele>707.05</ele>
        <time>2021-08-05T08:23:10Z</time>
      </trkpt>
      <trkpt lat="42.6554" lon="-1.38978">
        <ele>703.51</ele>
        <time>2021-08-05T08:23:13Z</time>
      </trkpt>
      <trkpt lat="42.65515" lon="-1.38905">
        <ele>699.59</ele>
        <time>2021-08-05T08:23:16Z</time>
      </trkpt>
      <trkpt lat="42.65485" lon="-1.38833">
        <ele>695.71</ele>
        <time>2021-08-05T08:23:19Z</time>
      </trkpt>
      <trkpt lat="42.65469" lon="-1.38783">
        <ele>693.23</ele>
        <time>2021-08-05T08:23:21Z</time>
      </trkpt>
      <trkpt lat="42.65458" lon="-1.38676">
        <ele>688.27</ele>
        <time>2021-08-05T08:23:25Z</time>
      </trkpt>
      <trkpt lat="42.6546" lon="-1.3865">
        <ele>687.12</ele>
        <time>2021-08-05T08:23:26Z</time>
      </trkpt>
      <trkpt lat="42.6547" lon="-1.38516">
        <ele>682.25</ele>
        <time>2021-08-05T08:23:31Z</time>
      </trkpt>
      <trkpt lat="42.65468" lon="-1.38404">
        <ele>678.81</ele>
        <time>2021-08-05T08:23:35Z</time>
      </trkpt>
      <trkpt lat="42.65441" lon="-1.38298">
        <ele>674.7</ele>
        <time>2021-08-05T08:23:39Z</time>
      </trkpt>
      <trkpt lat="42.65414" lon="-1.38221">
        <ele>671.42</ele>
        <time>2021-08-05T08:23:42Z</time>
      </trkpt>
      <trkpt lat="42.65397" lon="-1.38137">
        <ele>668.04</ele>
        <time>2021-08-05T08:23:45Z</time>
      </trkpt>
      <trkpt lat="42.6539" lon="-1.38049">
        <ele>664.42</ele>
        <time>2021-08-05T08:23:48Z</time>
      </trkpt>
      <trkpt lat="42.65385" lon="-1.37964">
        <ele>660.58</ele>
        <time>2021-08-05T08:23:51Z</time>
      </trkpt>
      <trkpt lat="42.65379" lon="-1.37881">
        <ele>656.27</ele>
        <time>2021-08-05T08:23:54Z</time>
      </trkpt>
      <trkpt lat="42.65373" lon="-1.37796">
        <ele>651.92</ele>
        <time>2021-08-05T08:23:57Z</time>
      </trkpt>
      <trkpt lat="42.65367" lon="-1.37738">
        <ele>648.89</ele>
        <time>2021-08-05T08:23:59Z</time>
      </trkpt>
      <trkpt lat="42.65359" lon="-1.37679">
        <ele>645.79</ele>
        <time>2021-08-05T08:24:01Z</time>
      </trkpt>
      <trkpt lat="42.65347" lon="-1.37619">
        <ele>642.39</ele>
        <time>2021-08-05T08:24:03Z</time>
      </trkpt>
      <trkpt lat="42.65334" lon="-1.37558">
        <ele>638.76</ele>
        <time>2021-08-05T08:24:05Z</time>
      </trkpt>
      <trkpt lat="42.65321" lon="-1.37496">
        <ele>635.13</ele>
        <time>2021-08-05T08:24:07Z</time>
      </trkpt>
      <trkpt lat="42.65307" lon="-1.37433">
        <ele>631.19</ele>
        <time>2021-08-05T08:24:09Z</time>
      </trkpt>
      <trkpt lat="42.65294" lon="-1.3737">
        <ele>627.28</ele>
        <time>2021-08-05T08:24:11Z</time>
      </trkpt>
      <trkpt lat="42.65281" lon="-1.37303">
        <ele>623.43</ele>
        <time>2021-08-05T08:24:13Z</time>
      </trkpt>
      <trkpt lat="42.6527" lon="-1.37235">
        <ele>619.89</ele>
        <time>2021-08-05T08:24:15Z</time>
      </trkpt>
      <trkpt lat="42.65261" lon="-1.37168">
        <ele>615.34</ele>
        <time>2021-08-05T08:24:17Z</time>
      </trkpt>
      <trkpt lat="42.65257" lon="-1.37134">
        <ele>615.34</ele>
        <time>2021-08-05T08:24:18Z</time>
      </trkpt>
      <trkpt lat="42.6525" lon="-1.37042">
        <ele>611.12</ele>
        <time>2021-08-05T08:24:21Z</time>
      </trkpt>
      <trkpt lat="42.65247" lon="-1.36955">
        <ele>605.28</ele>
        <time>2021-08-05T08:24:24Z</time>
      </trkpt>
      <trkpt lat="42.65245" lon="-1.36928">
        <ele>605.28</ele>
        <time>2021-08-05T08:24:25Z</time>
      </trkpt>
      <trkpt lat="42.65241" lon="-1.36877">
        <ele>601.25</ele>
        <time>2021-08-05T08:24:27Z</time>
      </trkpt>
      <trkpt lat="42.65232" lon="-1.36828">
        <ele>598.49</ele>
        <time>2021-08-05T08:24:29Z</time>
      </trkpt>
      <trkpt lat="42.65196" lon="-1.36735">
        <ele>593.72</ele>
        <time>2021-08-05T08:24:33Z</time>
      </trkpt>
      <trkpt lat="42.65169" lon="-1.36697">
        <ele>591.79</ele>
        <time>2021-08-05T08:24:35Z</time>
      </trkpt>
      <trkpt lat="42.65087" lon="-1.366">
        <ele>587.63</ele>
        <time>2021-08-05T08:24:41Z</time>
      </trkpt>
      <trkpt lat="42.64983" lon="-1.36485">
        <ele>584.62</ele>
        <time>2021-08-05T08:24:48Z</time>
      </trkpt>
      <trkpt lat="42.64922" lon="-1.36409">
        <ele>581.59</ele>
        <time>2021-08-05T08:24:52Z</time>
      </trkpt>
      <trkpt lat="42.64895" lon="-1.36362">
        <ele>579.53</ele>
        <time>2021-08-05T08:24:54Z</time>
      </trkpt>
      <trkpt lat="42.64869" lon="-1.36251">
        <ele>575.03</ele>
        <time>2021-08-05T08:24:58Z</time>
      </trkpt>
      <trkpt lat="42.6486" lon="-1.3614">
        <ele>570.77</ele>
        <time>2021-08-05T08:25:02Z</time>
      </trkpt>
      <trkpt lat="42.64846" lon="-1.36005">
        <ele>567.14</ele>
        <time>2021-08-05T08:25:07Z</time>
      </trkpt>
      <trkpt lat="42.64829" lon="-1.3586">
        <ele>563.63</ele>
        <time>2021-08-05T08:25:12Z</time>
      </trkpt>
      <trkpt lat="42.64814" lon="-1.35741">
        <ele>560.53</ele>
        <time>2021-08-05T08:25:16Z</time>
      </trkpt>
      <trkpt lat="42.6479" lon="-1.35624">
        <ele>556.93</ele>
        <time>2021-08-05T08:25:20Z</time>
      </trkpt>
      <trkpt lat="42.64764" lon="-1.3554">
        <ele>553.58</ele>
        <time>2021-08-05T08:25:23Z</time>
      </trkpt>
      <trkpt lat="42.64734" lon="-1.35458">
        <ele>549.33</ele>
        <time>2021-08-05T08:25:26Z</time>
      </trkpt>
      <trkpt lat="42.64701" lon="-1.35376">
        <ele>545.17</ele>
        <time>2021-08-05T08:25:29Z</time>
      </trkpt>
      <trkpt lat="42.64666" lon="-1.3529">
        <ele>540.77</ele>
        <time>2021-08-05T08:25:32Z</time>
      </trkpt>
      <trkpt lat="42.64629" lon="-1.35202">
        <ele>536.49</ele>
        <time>2021-08-05T08:25:35Z</time>
      </trkpt>
      <trkpt lat="42.64592" lon="-1.35118">
        <ele>532.97</ele>
        <time>2021-08-05T08:25:38Z</time>
      </trkpt>
      <trkpt lat="42.64533" lon="-1.34981">
        <ele>529.61</ele>
        <time>2021-08-05T08:25:43Z</time>
      </trkpt>
      <trkpt lat="42.6439" lon="-1.34647">
        <ele>529.14</ele>
        <time>2021-08-05T08:25:56Z</time>
      </trkpt>
      <trkpt lat="42.64258" lon="-1.34355">
        <ele>525.98</ele>
        <time>2021-08-05T08:26:08Z</time>
      </trkpt>
      <trkpt lat="42.64213" lon="-1.34275">
        <ele>523.01</ele>
        <time>2021-08-05T08:26:12Z</time>
      </trkpt>
      <trkpt lat="42.64137" lon="-1.3421">
        <ele>518.5</ele>
        <time>2021-08-05T08:26:17Z</time>
      </trkpt>
      <trkpt lat="42.64083" lon="-1.34194">
        <ele>517.2</ele>
        <time>2021-08-05T08:26:20Z</time>
      </trkpt>
      <trkpt lat="42.64053" lon="-1.34189">
        <ele>516.94</ele>
        <time>2021-08-05T08:26:22Z</time>
      </trkpt>
      <trkpt lat="42.63993" lon="-1.34154">
        <ele>516.51</ele>
        <time>2021-08-05T08:26:28Z</time>
      </trkpt>
      <trkpt lat="42.6395" lon="-1.34101">
        <ele>516.7</ele>
        <time>2021-08-05T08:26:35Z</time>
      </trkpt>
      <trkpt lat="42.63961" lon="-1.34022">
        <ele>516.79</ele>
        <time>2021-08-05T08:26:41Z</time>
      </trkpt>
      <trkpt lat="42.63959" lon="-1.34007">
        <ele>516.65</ele>
        <time>2021-08-05T08:26:42Z</time>
      </trkpt>
      <trkpt lat="42.63957" lon="-1.33977">
        <ele>516.38</ele>
        <time>2021-08-05T08:26:44Z</time>
      </trkpt>
      <trkpt lat="42.63994" lon="-1.33903">
        <ele>515.61</ele>
        <time>2021-08-05T08:26:50Z</time>
      </trkpt>
      <trkpt lat="42.64099" lon="-1.33835">
        <ele>513.44</ele>
        <time>2021-08-05T08:26:59Z</time>
      </trkpt>
      <trkpt lat="42.64144" lon="-1.33787">
        <ele>511.33</ele>
        <time>2021-08-05T08:27:05Z</time>
      </trkpt>
      <trkpt lat="42.642" lon="-1.33794">
        <ele>510.23</ele>
        <time>2021-08-05T08:27:10Z</time>
      </trkpt>
      <trkpt lat="42.64235" lon="-1.33768">
        <ele>509.41</ele>
        <time>2021-08-05T08:27:13Z</time>
      </trkpt>
      <trkpt lat="42.64367" lon="-1.33598">
        <ele>506.25</ele>
        <time>2021-08-05T08:27:24Z</time>
      </trkpt>
      <trkpt lat="42.64457" lon="-1.33474">
        <ele>503.13</ele>
        <time>2021-08-05T08:27:31Z</time>
      </trkpt>
      <trkpt lat="42.64554" lon="-1.33342">
        <ele>500.08</ele>
        <time>2021-08-05T08:27:38Z</time>
      </trkpt>
      <trkpt lat="42.64623" lon="-1.3325">
        <ele>497.4</ele>
        <time>2021-08-05T08:27:43Z</time>
      </trkpt>
      <trkpt lat="42.64693" lon="-1.33178">
        <ele>494.25</ele>
        <time>2021-08-05T08:27:48Z</time>
      </trkpt>
      <trkpt lat="42.64737" lon="-1.33153">
        <ele>490.92</ele>
        <time>2021-08-05T08:27:52Z</time>
      </trkpt>
      <trkpt lat="42.64774" lon="-1.33134">
        <ele>487.15</ele>
        <time>2021-08-05T08:27:56Z</time>
      </trkpt>
      <trkpt lat="42.64832" lon="-1.33105">
        <ele>483.51</ele>
        <time>2021-08-05T08:28:01Z</time>
      </trkpt>
      <trkpt lat="42.64901" lon="-1.3307">
        <ele>480.37</ele>
        <time>2021-08-05T08:28:06Z</time>
      </trkpt>
      <trkpt lat="42.64947" lon="-1.33044">
        <ele>478.64</ele>
        <time>2021-08-05T08:28:09Z</time>
      </trkpt>
      <trkpt lat="42.65021" lon="-1.32934">
        <ele>474.8</ele>
        <time>2021-08-05T08:28:15Z</time>
      </trkpt>
      <trkpt lat="42.65037" lon="-1.32833">
        <ele>471.68</ele>
        <time>2021-08-05T08:28:19Z</time>
      </trkpt>
      <trkpt lat="42.65036" lon="-1.32807">
        <ele>470.65</ele>
        <time>2021-08-05T08:28:20Z</time>
      </trkpt>
      <trkpt lat="42.65029" lon="-1.32675">
        <ele>465.71</ele>
        <time>2021-08-05T08:28:25Z</time>
      </trkpt>
      <trkpt lat="42.65025" lon="-1.3257">
        <ele>462.38</ele>
        <time>2021-08-05T08:28:29Z</time>
      </trkpt>
      <trkpt lat="42.65021" lon="-1.32438">
        <ele>458.8</ele>
        <time>2021-08-05T08:28:34Z</time>
      </trkpt>
      <trkpt lat="42.65009" lon="-1.32308">
        <ele>455.19</ele>
        <time>2021-08-05T08:28:39Z</time>
      </trkpt>
      <trkpt lat="42.64977" lon="-1.32182">
        <ele>451.9</ele>
        <time>2021-08-05T08:28:44Z</time>
      </trkpt>
      <trkpt lat="42.64934" lon="-1.32037">
        <ele>448.62</ele>
        <time>2021-08-05T08:28:50Z</time>
      </trkpt>
      <trkpt lat="42.64909" lon="-1.31946">
        <ele>447.08</ele>
        <time>2021-08-05T08:28:54Z</time>
      </trkpt>
      <trkpt lat="42.64907" lon="-1.31829">
        <ele>445.94</ele>
        <time>2021-08-05T08:28:59Z</time>
      </trkpt>
      <trkpt lat="42.6494" lon="-1.31549">
        <ele>442.28</ele>
        <time>2021-08-05T08:29:11Z</time>
      </trkpt>
      <trkpt lat="42.64956" lon="-1.31439">
        <ele>438.71</ele>
        <time>2021-08-05T08:29:18Z</time>
      </trkpt>
      <trkpt lat="42.64976" lon="-1.31324">
        <ele>437.12</ele>
        <time>2021-08-05T08:29:27Z</time>
      </trkpt>
      <trkpt lat="42.65002" lon="-1.31191">
        <ele>437.07</ele>
        <time>2021-08-05T08:29:37Z</time>
      </trkpt>
      <trkpt lat="42.65051" lon="-1.31088">
        <ele>438.51</ele>
        <time>2021-08-05T08:29:47Z</time>
      </trkpt>
      <trkpt lat="42.65087" lon="-1.31059">
        <ele>439.52</ele>
        <time>2021-08-05T08:29:51Z</time>
      </trkpt>
      <trkpt lat="42.65211" lon="-1.31023">
        <ele>441.82</ele>
        <time>2021-08-05T08:30:02Z</time>
      </trkpt>
      <trkpt lat="42.65316" lon="-1.30988">
        <ele>443.34</ele>
        <time>2021-08-05T08:30:09Z</time>
      </trkpt>
      <trkpt lat="42.6541" lon="-1.30894">
        <ele>444.99</ele>
        <time>2021-08-05T08:30:16Z</time>
      </trkpt>
      <trkpt lat="42.65441" lon="-1.30803">
        <ele>446.87</ele>
        <time>2021-08-05T08:30:20Z</time>
      </trkpt>
      <trkpt lat="42.6546" lon="-1.30629">
        <ele>450.5</ele>
        <time>2021-08-05T08:30:27Z</time>
      </trkpt>
      <trkpt lat="42.65496" lon="-1.30496">
        <ele>452.76</ele>
        <time>2021-08-05T08:30:34Z</time>
      </trkpt>
      <trkpt lat="42.65542" lon="-1.30422">
        <ele>452.14</ele>
        <time>2021-08-05T08:30:41Z</time>
      </trkpt>
      <trkpt lat="42.65548" lon="-1.30415">
        <ele>451.87</ele>
        <time>2021-08-05T08:30:42Z</time>
      </trkpt>
      <trkpt lat="42.65582" lon="-1.30384">
        <ele>451.01</ele>
        <time>2021-08-05T08:30:47Z</time>
      </trkpt>
      <trkpt lat="42.65693" lon="-1.30251">
        <ele>451.98</ele>
        <time>2021-08-05T08:31:00Z</time>
      </trkpt>
      <trkpt lat="42.65781" lon="-1.30155">
        <ele>455.14</ele>
        <time>2021-08-05T08:31:09Z</time>
      </trkpt>
      <trkpt lat="42.65869" lon="-1.30083">
        <ele>456.96</ele>
        <time>2021-08-05T08:31:18Z</time>
      </trkpt>
      <trkpt lat="42.65986" lon="-1.29983">
        <ele>458.86</ele>
        <time>2021-08-05T08:31:27Z</time>
      </trkpt>
      <trkpt lat="42.66133" lon="-1.29862">
        <ele>461.82</ele>
        <time>2021-08-05T08:31:37Z</time>
      </trkpt>
      <trkpt lat="42.663" lon="-1.29758">
        <ele>464.43</ele>
        <time>2021-08-05T08:31:47Z</time>
      </trkpt>
      <trkpt lat="42.6648" lon="-1.2969">
        <ele>464.7</ele>
        <time>2021-08-05T08:31:57Z</time>
      </trkpt>
      <trkpt lat="42.66744" lon="-1.29678">
        <ele>461.61</ele>
        <time>2021-08-05T08:32:10Z</time>
      </trkpt>
      <trkpt lat="42.67167" lon="-1.29655">
        <ele>464.08</ele>
        <time>2021-08-05T08:32:30Z</time>
      </trkpt>
      <trkpt lat="42.67326" lon="-1.29646">
        <ele>467.21</ele>
        <time>2021-08-05T08:32:38Z</time>
      </trkpt>
      <trkpt lat="42.67439" lon="-1.2964">
        <ele>470.26</ele>
        <time>2021-08-05T08:32:44Z</time>
      </trkpt>
      <trkpt lat="42.67535" lon="-1.29635">
        <ele>473.8</ele>
        <time>2021-08-05T08:32:49Z</time>
      </trkpt>
      <trkpt lat="42.67683" lon="-1.29656">
        <ele>476.97</ele>
        <time>2021-08-05T08:32:58Z</time>
      </trkpt>
      <trkpt lat="42.67809" lon="-1.29746">
        <ele>477.9</ele>
        <time>2021-08-05T08:33:06Z</time>
      </trkpt>
      <trkpt lat="42.68034" lon="-1.2992">
        <ele>474.8</ele>
        <time>2021-08-05T08:33:20Z</time>
      </trkpt>
      <trkpt lat="42.68131" lon="-1.29995">
        <ele>471.77</ele>
        <time>2021-08-05T08:33:26Z</time>
      </trkpt>
      <trkpt lat="42.68211" lon="-1.30056">
        <ele>468.55</ele>
        <time>2021-08-05T08:33:31Z</time>
      </trkpt>
      <trkpt lat="42.68291" lon="-1.30124">
        <ele>465.4</ele>
        <time>2021-08-05T08:33:36Z</time>
      </trkpt>
      <trkpt lat="42.68354" lon="-1.30187">
        <ele>462.3</ele>
        <time>2021-08-05T08:33:40Z</time>
      </trkpt>
      <trkpt lat="42.68417" lon="-1.30253">
        <ele>459.12</ele>
        <time>2021-08-05T08:33:44Z</time>
      </trkpt>
      <trkpt lat="42.68477" lon="-1.30317">
        <ele>455.62</ele>
        <time>2021-08-05T08:33:48Z</time>
      </trkpt>
      <trkpt lat="42.68536" lon="-1.30378">
        <ele>452.5</ele>
        <time>2021-08-05T08:33:52Z</time>
      </trkpt>
      <trkpt lat="42.68615" lon="-1.30459">
        <ele>449.45</ele>
        <time>2021-08-05T08:33:58Z</time>
      </trkpt>
      <trkpt lat="42.68668" lon="-1.30523">
        <ele>434.7</ele>
      </trkpt>
      <trkpt lat="42.68654" lon="-1.30543">
        <ele>434.3</ele>
      </trkpt>
      <trkpt lat="42.68631" lon="-1.30591">
        <ele>433.6</ele>
      </trkpt>
      <trkpt lat="42.68616" lon="-1.30622">
        <ele>433.4</ele>
      </trkpt>
      <trkpt lat="42.68614" lon="-1.30627">
        <ele>433.4</ele>
      </trkpt>
      <trkpt lat="42.68612" lon="-1.30638">
        <ele>433.3</ele>
      </trkpt>
      <trkpt lat="42.68613" lon="-1.30651">
        <ele>433.4</ele>
      </trkpt>
      <trkpt lat="42.68617" lon="-1.30661">
        <ele>433.4</ele>
      </trkpt>
      <trkpt lat="42.68644" lon="-1.30705">
        <ele>433.6</ele>
      </trkpt>
      <trkpt lat="42.68658" lon="-1.30729">
        <ele>433.8</ele>
      </trkpt>
      <trkpt lat="42.68671" lon="-1.30759">
        <ele>434.2</ele>
      </trkpt>
      <trkpt lat="42.68689" lon="-1.30808">
        <ele>435</ele>
      </trkpt>
      <trkpt lat="42.68711" lon="-1.30863">
        <ele>435.6</ele>
      </trkpt>
      <trkpt lat="42.68716" lon="-1.30874">
        <ele>435.5</ele>
      </trkpt>
      <trkpt lat="42.68738" lon="-1.30913">
        <ele>435</ele>
      </trkpt>
      <trkpt lat="42.688" lon="-1.31061">
        <ele>434.2</ele>
      </trkpt>
      <trkpt lat="42.68815" lon="-1.31091">
        <ele>434.2</ele>
      </trkpt>
      <trkpt lat="42.68872" lon="-1.31164">
        <ele>432.6</ele>
      </trkpt>
      <trkpt lat="42.68882" lon="-1.31181">
        <ele>432.3</ele>
      </trkpt>
      <trkpt lat="42.68888" lon="-1.31198">
        <ele>432</ele>
      </trkpt>
      <trkpt lat="42.6893" lon="-1.31347">
        <ele>431</ele>
      </trkpt>
      <trkpt lat="42.68932" lon="-1.31364">
        <ele>431.3</ele>
      </trkpt>
      <trkpt lat="42.68932" lon="-1.31366">
        <ele>431.3</ele>
      </trkpt>
    </trkseg>
  </trk>
</gpx>